Main page
METAR-TAF:

METAR-TAF

Airports :

Pecos Municipal Airport

Pecos, Texas, United States

latitude: 31-22-56N, longitude: 103-30-38W, elevation: 2611 ft

Current weather observation

The report was made 34 minutes ago, at 05:35 UTC
Wind 6 mph from the East
Temperature 68°F
Humidity 73%
Pressure 29.89 in. Hg
Visibility: 10 miles
Clear sky

METAR: KPEQ 250535Z AUTO 08005KT 10SM CLR 20/15 A2989 RMK AO2 T02000145

Time: 01:09 (06:09 UTC)

Forecast

The report was made 43 minutes ago, at 05:26 UTC
Forecast valid from 25 at 06 UTC to 26 at 06 UTC
Wind 9 mph from the East
Visibility: 6 miles
Clear sky

TAF: KPEQ 250526Z 2506/2606 09008KT P6SM SKC

Weather observations and forecasts of more than 4000 airports (METAR and TAF reports).

The available stations are represented by yellow and red dots on the map.

Hover mouse over dot to see the name of the station.

Then click to see weather observations and forecasts.

To change the map : click on the green buttons with a black cross to zoom in, on the green button with a dash to zoom out, or on the green arrows for adjacent maps.


METAR-TAF: